Kirishima Maru No.15 — JM6546 — position and weather

sailwx.info

Track history (hours):
 
Tides and Currents Weather Stations Pressure Air Temp Water Temp Dewpoint Dewpoint Depression Visibility Wind Speed Wind Dir Waves Ship Positions

Kirishima Maru No.15

Last reported at 2018-Jul-15 06:30 UTC. Time now 2018-Jul-16 02:32 UTC.
Position N 35°36' E 140°06'.

Length 101 m; draft 5.5 m.

Type: Tanker. MMSI: 431600872.

Date/timePositionNaut miles runAvg speedWind from/ knotsBaromVisibWave heightAir tempDewpointWater temp
2018-Jul-15 06:30N 35°36' E 140°06'1 2.4
2018-Jul-15 06:00N 35°36' E 140°05'4 0.2
2018-Jul-14 03:39N 35°32' E 140°03'1 3.6
2018-Jul-14 03:30N 35°33' E 140°03'1 0.0
2018-Jul-13 09:51N 35°33' E 140°03'1 0.0
2018-Jul-12 05:18N 35°32' E 140°03'2 0.1
2018-Jul-11 01:44N 35°33' E 140°02'6 0.4
2018-Jul-10 10:17N 35°31' E 139°54'414.4
2018-Jul-10 09:59N 35°31' E 139°49'1 2.0
2018-Jul-10 09:18N 35°32' E 139°48'0 0.0
2018-Jul-10 08:51N 35°32' E 139°48'0 0.0
2018-Jul-10 08:21N 35°32' E 139°48'0 0.0
2018-Jul-10 07:51N 35°32' E 139°48'0 0.0
2018-Jul-10 07:27N 35°32' E 139°48'0 0.0
2018-Jul-10 06:51N 35°32' E 139°48'0 0.0
2018-Jul-10 06:18N 35°32' E 139°48'0 0.9
2018-Jul-10 06:00N 35°32' E 139°48'510.0
2018-Jul-10 05:30N 35°31' E 139°54'713.1
2018-Jul-10 05:00N 35°32' E 140°02'1 0.1
2018-Jul-09 05:05N 35°34' E 140°02'211.8
2018-Jul-09 04:56N 35°32' E 140°03'6 0.3
2018-Jul-08 08:38N 35°32' E 139°56'214.2
2018-Jul-08 08:30N 35°31' E 139°54'510.2
2018-Jul-08 08:00N 35°32' E 139°48'0 0.1
2018-Jul-08 07:22N 35°32' E 139°48'0 0.0
2018-Jul-08 06:55N 35°32' E 139°48'0 0.0
2018-Jul-08 06:10N 35°32' E 139°48'0 0.0
2018-Jul-08 05:52N 35°32' E 139°48'0 0.0
2018-Jul-08 05:10N 35°32' E 139°48'0 0.0
2018-Jul-08 04:49N 35°32' E 139°48'0 0.0
2018-Jul-08 04:28N 35°32' E 139°48'0 0.0
2018-Jul-08 03:55N 35°32' E 139°48'1 1.5
2018-Jul-08 03:31N 35°31' E 139°48'2 4.2
2018-Jul-08 03:00N 35°31' E 139°50'0 0.1
2018-Jul-08 02:28N 35°31' E 139°51'0 0.0
2018-Jul-08 01:25N 35°31' E 139°51'0 0.0
2018-Jul-08 00:54N 35°31' E 139°51'0 0.0
2018-Jul-08 00:31N 35°31' E 139°51'0 0.0
2018-Jul-07 23:58N 35°31' E 139°51'0 0.1
2018-Jul-07 23:31N 35°31' E 139°50'0 0.1
2018-Jul-07 22:55N 35°31' E 139°51'0 0.1
2018-Jul-07 22:30N 35°31' E 139°50'0 0.0
2018-Jul-07 22:01N 35°31' E 139°50'0 0.0
2018-Jul-07 21:30N 35°31' E 139°50'0 0.0
2018-Jul-07 21:00N 35°31' E 139°50'0 0.0
2018-Jul-07 20:30N 35°31' E 139°50'0 0.0
2018-Jul-07 20:00N 35°31' E 139°50'0 0.0
2018-Jul-07 19:30N 35°31' E 139°50'0 0.0
2018-Jul-07 18:21N 35°31' E 139°50'0 0.0
2018-Jul-07 15:51N 35°31' E 139°50'0 0.0
2018-Jul-07 15:15N 35°31' E 139°50'0 0.0
2018-Jul-07 14:45N 35°31' E 139°50'0 0.0
2018-Jul-07 14:30N 35°31' E 139°50'0 0.0
2018-Jul-07 13:57N 35°31' E 139°50'0 0.0
2018-Jul-07 13:30N 35°31' E 139°50'0 0.0
2018-Jul-07 13:00N 35°31' E 139°50'0 0.1
2018-Jul-07 12:30N 35°31' E 139°51'0 0.0
2018-Jul-07 11:45N 35°31' E 139°51'1 4.2
2018-Jul-07 11:28N 35°31' E 139°52'9 1.3
2018-Jul-07 04:17N 35°32' E 140°03'2 8.5
2018-Jul-07 03:59N 35°34' E 140°03'  
Track history (hours):
 
Tides and Currents Weather Stations Pressure Air Temp Water Temp Dewpoint Dewpoint Depression Visibility Wind Speed Wind Dir Waves Ship Positions

Kirishima Maru No.15

Last reported at 2018-Jul-15 06:30 UTC. Time now 2018-Jul-16 02:32 UTC.
Position N 35°36' E 140°06'.

Length 101 m; draft 5.5 m.

Type: Tanker. MMSI: 431600872.

Date/timePositionNaut miles runAvg speedWind from/ knotsBaromVisibWave heightAir tempDewpointWater temp
2018-Jul-15 06:30N 35°36' E 140°06'1 2.4
2018-Jul-15 06:00N 35°36' E 140°05'4 0.2
2018-Jul-14 03:39N 35°32' E 140°03'1 3.6
2018-Jul-14 03:30N 35°33' E 140°03'1 0.0
2018-Jul-13 09:51N 35°33' E 140°03'1 0.0
2018-Jul-12 05:18N 35°32' E 140°03'2 0.1
2018-Jul-11 01:44N 35°33' E 140°02'6 0.4
2018-Jul-10 10:17N 35°31' E 139°54'414.4
2018-Jul-10 09:59N 35°31' E 139°49'1 2.0
2018-Jul-10 09:18N 35°32' E 139°48'0 0.0
2018-Jul-10 08:51N 35°32' E 139°48'0 0.0
2018-Jul-10 08:21N 35°32' E 139°48'0 0.0
2018-Jul-10 07:51N 35°32' E 139°48'0 0.0
2018-Jul-10 07:27N 35°32' E 139°48'0 0.0
2018-Jul-10 06:51N 35°32' E 139°48'0 0.0
2018-Jul-10 06:18N 35°32' E 139°48'0 0.9
2018-Jul-10 06:00N 35°32' E 139°48'510.0
2018-Jul-10 05:30N 35°31' E 139°54'713.1
2018-Jul-10 05:00N 35°32' E 140°02'1 0.1
2018-Jul-09 05:05N 35°34' E 140°02'211.8
2018-Jul-09 04:56N 35°32' E 140°03'6 0.3
2018-Jul-08 08:38N 35°32' E 139°56'214.2
2018-Jul-08 08:30N 35°31' E 139°54'510.2
2018-Jul-08 08:00N 35°32' E 139°48'0 0.1
2018-Jul-08 07:22N 35°32' E 139°48'0 0.0
2018-Jul-08 06:55N 35°32' E 139°48'0 0.0
2018-Jul-08 06:10N 35°32' E 139°48'0 0.0
2018-Jul-08 05:52N 35°32' E 139°48'0 0.0
2018-Jul-08 05:10N 35°32' E 139°48'0 0.0
2018-Jul-08 04:49N 35°32' E 139°48'0 0.0
2018-Jul-08 04:28N 35°32' E 139°48'0 0.0
2018-Jul-08 03:55N 35°32' E 139°48'1 1.5
2018-Jul-08 03:31N 35°31' E 139°48'2 4.2
2018-Jul-08 03:00N 35°31' E 139°50'0 0.1
2018-Jul-08 02:28N 35°31' E 139°51'0 0.0
2018-Jul-08 01:25N 35°31' E 139°51'0 0.0
2018-Jul-08 00:54N 35°31' E 139°51'0 0.0
2018-Jul-08 00:31N 35°31' E 139°51'0 0.0
2018-Jul-07 23:58N 35°31' E 139°51'0 0.1
2018-Jul-07 23:31N 35°31' E 139°50'0 0.1
2018-Jul-07 22:55N 35°31' E 139°51'0 0.1
2018-Jul-07 22:30N 35°31' E 139°50'0 0.0
2018-Jul-07 22:01N 35°31' E 139°50'0 0.0
2018-Jul-07 21:30N 35°31' E 139°50'0 0.0
2018-Jul-07 21:00N 35°31' E 139°50'0 0.0
2018-Jul-07 20:30N 35°31' E 139°50'0 0.0
2018-Jul-07 20:00N 35°31' E 139°50'0 0.0
2018-Jul-07 19:30N 35°31' E 139°50'0 0.0
2018-Jul-07 18:21N 35°31' E 139°50'0 0.0
2018-Jul-07 15:51N 35°31' E 139°50'0 0.0
2018-Jul-07 15:15N 35°31' E 139°50'0 0.0
2018-Jul-07 14:45N 35°31' E 139°50'0 0.0
2018-Jul-07 14:30N 35°31' E 139°50'0 0.0
2018-Jul-07 13:57N 35°31' E 139°50'0 0.0
2018-Jul-07 13:30N 35°31' E 139°50'0 0.0
2018-Jul-07 13:00N 35°31' E 139°50'0 0.1
2018-Jul-07 12:30N 35°31' E 139°51'0 0.0
2018-Jul-07 11:45N 35°31' E 139°51'1 4.2
2018-Jul-07 11:28N 35°31' E 139°52'9 1.3
2018-Jul-07 04:17N 35°32' E 140°03'2 8.5
2018-Jul-07 03:59N 35°34' E 140°03'  

Dump ship's entire track history